createdAt,value
2024-05-09T00:01:26.283Z,14.94
2024-05-09T00:03:28.041Z,14.96
2024-05-09T00:05:29.933Z,14.95
2024-05-09T00:07:31.600Z,14.92
2024-05-09T00:09:33.257Z,14.95
2024-05-09T00:11:35.002Z,14.96
2024-05-09T00:13:36.723Z,14.92
2024-05-09T00:15:38.345Z,14.90
2024-05-09T00:17:40.353Z,14.95
2024-05-09T00:19:42.763Z,14.94
2024-05-09T00:21:44.409Z,14.94
2024-05-09T00:23:46.039Z,14.92
2024-05-09T00:25:47.733Z,14.94
2024-05-09T00:27:49.386Z,14.90
2024-05-09T00:29:51.034Z,14.90
2024-05-09T00:31:52.910Z,14.88
2024-05-09T00:33:54.731Z,14.86
2024-05-09T00:35:56.469Z,14.87
2024-05-09T00:37:58.251Z,14.86
2024-05-09T00:39:59.911Z,14.82
2024-05-09T00:42:01.527Z,14.87
2024-05-09T00:44:03.547Z,14.96
2024-05-09T00:46:06.149Z,14.90
2024-05-09T00:48:11.606Z,14.90
2024-05-09T00:50:19.422Z,14.93
2024-05-09T00:52:24.867Z,14.92
2024-05-09T00:54:27.513Z,14.88
2024-05-09T00:56:29.290Z,14.87
2024-05-09T00:58:31.264Z,14.88
2024-05-09T01:00:38.713Z,14.89
2024-05-09T01:02:42.462Z,14.89
2024-05-09T01:04:44.341Z,14.89
2024-05-09T01:06:46.798Z,14.95
2024-05-09T01:08:48.536Z,14.88
2024-05-09T01:10:50.278Z,14.86
2024-05-09T01:12:51.992Z,14.92
2024-05-09T01:14:53.660Z,14.99
2024-05-09T01:16:55.576Z,15.05
2024-05-09T01:18:58.363Z,14.91
2024-05-09T01:21:00.122Z,14.96
2024-05-09T01:23:05.550Z,14.93
2024-05-09T01:25:07.223Z,14.85
2024-05-09T01:27:08.847Z,14.80
2024-05-09T01:29:10.612Z,14.77
2024-05-09T01:31:14.770Z,14.73
2024-05-09T01:33:16.676Z,14.80
2024-05-09T01:35:22.323Z,14.75
2024-05-09T01:37:23.980Z,14.68
2024-05-09T01:39:25.604Z,14.65
2024-05-09T01:41:27.357Z,14.61
2024-05-09T01:43:29.015Z,14.54
2024-05-09T01:45:30.632Z,14.48
2024-05-09T01:47:32.353Z,14.48
2024-05-09T01:49:36.330Z,14.46
2024-05-09T01:51:38.024Z,14.39
2024-05-09T01:53:39.694Z,14.39
2024-05-09T01:55:41.979Z,14.39
2024-05-09T01:57:43.634Z,14.38
2024-05-09T01:59:46.234Z,14.31
2024-05-09T02:01:56.595Z,14.45
2024-05-09T02:03:59.557Z,14.50
2024-05-09T02:06:01.606Z,14.45
2024-05-09T02:08:04.214Z,14.53
2024-05-09T02:10:13.633Z,14.54
2024-05-09T02:12:18.333Z,14.54
2024-05-09T02:14:20.134Z,14.65
2024-05-09T02:16:21.802Z,14.61
2024-05-09T02:18:23.686Z,14.64
2024-05-09T02:20:33.113Z,14.66
2024-05-09T02:22:37.675Z,14.73
2024-05-09T02:24:39.302Z,14.69
2024-05-09T02:26:41.009Z,14.78
2024-05-09T02:28:42.652Z,14.80
2024-05-09T02:30:44.279Z,14.88
2024-05-09T02:32:46.115Z,14.87
2024-05-09T02:34:47.952Z,14.89
2024-05-09T02:36:49.584Z,14.87
2024-05-09T02:38:51.220Z,14.82
2024-05-09T02:40:52.892Z,14.84
2024-05-09T02:42:54.506Z,14.80
2024-05-09T02:44:56.143Z,14.81
2024-05-09T02:46:57.763Z,14.73
2024-05-09T02:48:59.504Z,14.74
2024-05-09T02:51:01.662Z,14.73
2024-05-09T02:53:03.460Z,14.67
2024-05-09T02:55:05.107Z,14.60
2024-05-09T02:57:07.075Z,14.54
2024-05-09T02:59:08.732Z,14.54
2024-05-09T03:01:10.427Z,14.58
2024-05-09T03:03:14.503Z,14.53
2024-05-09T03:05:17.396Z,14.50
2024-05-09T03:07:20.253Z,14.43
2024-05-09T03:09:22.897Z,14.44
2024-05-09T03:11:25.341Z,14.41
2024-05-09T03:13:27.212Z,14.34
2024-05-09T03:15:31.638Z,14.37
2024-05-09T03:17:33.613Z,14.33
2024-05-09T03:19:35.926Z,14.33
2024-05-09T03:21:40.618Z,14.31
2024-05-09T03:23:42.970Z,14.34
2024-05-09T03:25:44.814Z,14.37
2024-05-09T03:27:46.810Z,14.33
2024-05-09T03:29:48.448Z,14.34
2024-05-09T03:31:50.152Z,14.46
2024-05-09T03:33:51.960Z,14.51
2024-05-09T03:35:53.620Z,14.53
2024-05-09T03:37:55.284Z,14.51
2024-05-09T03:39:56.923Z,14.48
2024-05-09T03:41:58.567Z,14.44
2024-05-09T03:44:00.280Z,14.52
2024-05-09T03:46:01.962Z,14.49
2024-05-09T03:48:03.821Z,14.50
2024-05-09T03:50:07.801Z,14.48
2024-05-09T03:52:13.731Z,14.44
2024-05-09T03:54:15.410Z,14.53
2024-05-09T03:56:17.332Z,14.54
2024-05-09T03:58:19.049Z,14.57
2024-05-09T04:00:30.483Z,14.57
2024-05-09T04:02:41.486Z,14.63
2024-05-09T04:04:43.871Z,14.64
2024-05-09T04:06:45.551Z,14.62
2024-05-09T04:08:48.762Z,14.62
2024-05-09T04:10:50.508Z,14.68
2024-05-09T04:12:52.316Z,14.73
2024-05-09T04:14:53.940Z,14.76
2024-05-09T04:16:55.689Z,14.77
2024-05-09T04:18:57.441Z,14.72
2024-05-09T04:20:59.309Z,14.72
2024-05-09T04:23:01.126Z,14.77
2024-05-09T04:25:02.891Z,14.78
2024-05-09T04:27:04.609Z,14.87
2024-05-09T04:29:06.792Z,14.89
2024-05-09T04:31:08.471Z,14.83
2024-05-09T04:33:12.439Z,14.85
2024-05-09T04:35:19.100Z,14.84
2024-05-09T04:37:20.736Z,14.92
2024-05-09T04:39:22.361Z,14.95
2024-05-09T04:41:24.044Z,14.90
2024-05-09T04:43:25.686Z,14.96
2024-05-09T04:45:27.380Z,14.98
2024-05-09T04:47:29.107Z,14.99
2024-05-09T04:49:31.100Z,15.01
2024-05-09T04:51:34.355Z,15.08
2024-05-09T04:53:36.198Z,15.23
2024-05-09T04:55:38.839Z,15.35
2024-05-09T04:57:40.475Z,15.48
2024-05-09T04:59:42.418Z,15.63
2024-05-09T05:01:45.039Z,15.74
2024-05-09T05:03:48.201Z,15.91
2024-05-09T05:05:49.978Z,15.99
2024-05-09T05:07:51.735Z,16.09
2024-05-09T05:09:53.362Z,16.21
2024-05-09T05:11:55.105Z,16.30
2024-05-09T05:13:56.818Z,16.31
2024-05-09T05:15:58.879Z,16.35
2024-05-09T05:18:00.711Z,16.43
2024-05-09T05:20:02.974Z,16.43
2024-05-09T05:22:04.892Z,16.44
2024-05-09T05:24:06.516Z,16.58
2024-05-09T05:26:08.199Z,16.55
2024-05-09T05:28:10.131Z,16.61
2024-05-09T05:32:16.497Z,16.51
2024-05-09T05:34:18.216Z,16.55
2024-05-09T05:36:19.860Z,16.58
2024-05-09T05:38:25.032Z,16.65
2024-05-09T05:40:36.565Z,16.48
2024-05-09T05:42:39.814Z,16.67
2024-05-09T05:44:41.541Z,16.57
2024-05-09T05:46:43.206Z,16.69
2024-05-09T05:48:44.909Z,16.74
2024-05-09T05:50:46.857Z,16.75
2024-05-09T05:52:48.596Z,16.87
2024-05-09T05:54:50.758Z,16.87
2024-05-09T05:56:52.391Z,16.95
2024-05-09T05:58:54.089Z,16.92
2024-05-09T06:00:55.795Z,16.92
2024-05-09T06:02:57.555Z,17.03
2024-05-09T06:04:59.348Z,17.11
2024-05-09T06:07:01.074Z,17.28
2024-05-09T06:09:02.714Z,17.45
2024-05-09T06:11:04.466Z,17.55
2024-05-09T06:13:06.737Z,17.64
2024-05-09T06:15:08.375Z,17.50
2024-05-09T06:17:10.244Z,17.50
2024-05-09T06:19:12.091Z,17.56
2024-05-09T06:21:16.512Z,17.75
2024-05-09T06:23:18.436Z,17.69
2024-05-09T06:25:20.165Z,17.79
2024-05-09T06:27:21.802Z,17.64
2024-05-09T06:29:23.460Z,17.64
2024-05-09T06:31:25.158Z,17.95
2024-05-09T06:33:27.001Z,18.13
2024-05-09T06:35:28.823Z,18.53
2024-05-09T06:37:30.487Z,19.69
2024-05-09T06:39:32.118Z,19.74
2024-05-09T06:41:33.829Z,20.71
2024-05-09T06:43:36.552Z,21.97
2024-05-09T06:45:38.503Z,21.44
2024-05-09T06:47:40.563Z,21.46
2024-05-09T06:49:42.516Z,21.54
2024-05-09T06:51:44.158Z,21.19
2024-05-09T06:53:46.124Z,20.60
2024-05-09T06:55:48.279Z,20.54
2024-05-09T06:57:49.931Z,20.58
2024-05-09T06:59:51.574Z,20.46
2024-05-09T07:01:53.214Z,20.36
2024-05-09T07:03:54.933Z,21.81
2024-05-09T07:05:56.819Z,22.21
2024-05-09T07:07:58.464Z,22.49
2024-05-09T07:10:00.131Z,22.73
2024-05-09T07:12:02.524Z,23.55
2024-05-09T07:14:04.915Z,23.04
2024-05-09T07:16:06.678Z,22.73
2024-05-09T07:18:15.295Z,22.16
2024-05-09T07:20:23.639Z,21.83
2024-05-09T07:22:33.660Z,21.56
2024-05-09T07:24:36.321Z,21.33
2024-05-09T07:26:38.146Z,20.67
2024-05-09T07:28:39.905Z,20.48
2024-05-09T07:30:41.962Z,19.98
2024-05-09T07:32:43.935Z,20.05
2024-05-09T07:34:45.748Z,19.91
2024-05-09T07:36:47.411Z,20.15
2024-05-09T07:38:49.104Z,20.03
2024-05-09T07:40:50.846Z,20.20
2024-05-09T07:42:52.584Z,20.32
2024-05-09T07:44:55.516Z,20.13
2024-05-09T07:50:53.117Z,20.18
2024-05-09T07:53:40.004Z,19.90
2024-05-09T07:55:46.292Z,19.83
2024-05-09T07:57:48.019Z,20.50
2024-05-09T07:59:49.667Z,20.52
2024-05-09T08:01:51.363Z,20.64
2024-05-09T08:03:53.967Z,20.30
2024-05-09T08:05:55.758Z,20.24
2024-05-09T08:07:57.369Z,20.00
2024-05-09T08:09:59.053Z,19.88
2024-05-09T08:12:00.674Z,19.90
2024-05-09T08:14:02.311Z,19.85
2024-05-09T08:16:04.315Z,19.78
2024-05-09T08:18:10.181Z,19.79
2024-05-09T08:20:15.877Z,19.92
2024-05-09T08:22:20.445Z,20.02
2024-05-09T08:24:22.100Z,20.11
2024-05-09T08:26:23.717Z,20.28
2024-05-09T08:28:25.398Z,20.82
2024-05-09T08:30:33.203Z,21.21
2024-05-09T08:32:39.421Z,21.18
2024-05-09T08:34:41.435Z,20.96
2024-05-09T08:36:43.153Z,20.78
2024-05-09T08:38:44.812Z,20.73
2024-05-09T08:40:47.648Z,20.69
2024-05-09T08:42:54.240Z,20.44
2024-05-09T08:44:55.899Z,20.47
2024-05-09T08:46:58.630Z,20.46
2024-05-09T08:49:02.664Z,20.57
2024-05-09T08:51:05.749Z,20.76
2024-05-09T08:53:07.765Z,20.54
2024-05-09T08:55:10.008Z,20.70
2024-05-09T08:57:13.695Z,21.21
2024-05-09T08:59:22.780Z,22.19
2024-05-09T09:01:29.355Z,23.34
2024-05-09T09:03:32.900Z,24.04
2024-05-09T09:05:38.293Z,24.95
2024-05-09T09:07:40.091Z,25.51
2024-05-09T09:09:44.725Z,26.02
2024-05-09T09:11:46.389Z,26.40
2024-05-09T09:13:48.739Z,26.72
2024-05-09T09:15:51.000Z,27.04
2024-05-09T09:17:55.027Z,27.28
2024-05-09T09:19:58.700Z,27.20
2024-05-09T09:22:00.499Z,27.12
2024-05-09T09:24:02.344Z,26.95
2024-05-09T09:26:04.337Z,27.23
2024-05-09T09:28:06.383Z,27.46
2024-05-09T09:30:18.466Z,27.60
2024-05-09T09:32:29.697Z,27.52
2024-05-09T09:34:32.322Z,27.44
2024-05-09T09:36:37.349Z,27.67
2024-05-09T09:38:41.772Z,26.76
2024-05-09T09:40:49.792Z,27.34
2024-05-09T09:42:56.591Z,27.21
2024-05-09T09:45:04.685Z,27.64
2024-05-09T09:47:08.426Z,26.93
2024-05-09T09:49:10.771Z,27.07
2024-05-09T09:51:15.370Z,27.15
2024-05-09T09:53:18.195Z,27.12
2024-05-09T09:55:21.653Z,27.74
2024-05-09T09:57:26.102Z,27.89
2024-05-09T09:59:28.634Z,28.03
2024-05-09T10:01:30.887Z,28.13
2024-05-09T10:03:33.049Z,27.56
2024-05-09T10:05:35.611Z,28.03
2024-05-09T10:07:42.563Z,27.44
2024-05-09T10:09:45.053Z,27.81
2024-05-09T10:11:52.005Z,27.76
2024-05-09T10:13:56.613Z,27.47
2024-05-09T10:16:06.841Z,27.61
2024-05-09T10:18:08.661Z,27.82
2024-05-09T10:20:18.312Z,27.62
2024-05-09T10:22:29.900Z,28.01
2024-05-09T10:24:52.362Z,28.22
2024-05-09T10:26:55.214Z,27.80
2024-05-09T10:28:57.640Z,27.96
2024-05-09T10:31:07.411Z,27.94
2024-05-09T10:33:10.035Z,27.73
2024-05-09T10:35:13.852Z,28.13
2024-05-09T10:37:17.981Z,28.30
2024-05-09T10:39:20.614Z,27.92
2024-05-09T10:41:23.122Z,28.34
2024-05-09T10:43:25.814Z,28.02
2024-05-09T10:45:27.558Z,28.03
2024-05-09T10:47:29.390Z,28.40
2024-05-09T10:49:31.146Z,28.20
2024-05-09T10:51:33.872Z,27.78
2024-05-09T10:53:46.927Z,28.25
2024-05-09T10:55:58.694Z,27.97
2024-05-09T10:58:00.473Z,28.20
2024-05-09T11:00:04.930Z,28.22
2024-05-09T11:02:09.610Z,28.11
2024-05-09T11:04:12.881Z,28.18
2024-05-09T11:06:16.250Z,28.32
2024-05-09T11:08:20.975Z,28.59
2024-05-09T11:10:31.582Z,28.73
2024-05-09T11:12:35.759Z,28.90
2024-05-09T11:14:37.523Z,28.38
2024-05-09T11:16:39.220Z,28.73
2024-05-09T11:18:41.212Z,28.61
2024-05-09T11:20:43.097Z,28.26
2024-05-09T11:22:45.093Z,28.19
2024-05-09T11:24:47.727Z,27.95
2024-05-09T11:26:49.428Z,28.22
2024-05-09T11:28:51.205Z,28.56
2024-05-09T11:31:06.971Z,28.23
2024-05-09T11:33:19.139Z,28.64
2024-05-09T11:35:20.863Z,28.73
2024-05-09T11:37:22.533Z,28.38
2024-05-09T11:39:24.423Z,28.33
2024-05-09T11:41:26.131Z,28.72
2024-05-09T11:43:27.866Z,28.61
2024-05-09T11:45:29.566Z,28.70
2024-05-09T11:47:31.272Z,28.96
2024-05-09T11:49:33.275Z,28.60
2024-05-09T11:51:35.071Z,29.22
2024-05-09T11:53:36.748Z,29.16
2024-05-09T11:55:38.380Z,29.05
2024-05-09T11:57:40.068Z,29.00
2024-05-09T11:59:41.735Z,29.17
2024-05-09T12:01:43.754Z,29.32
2024-05-09T12:03:47.352Z,29.08
2024-05-09T12:05:49.326Z,28.98
2024-05-09T12:07:51.679Z,29.13
2024-05-09T12:09:53.362Z,29.17
2024-05-09T12:11:55.111Z,28.85
2024-05-09T12:13:56.752Z,28.74
2024-05-09T12:15:58.494Z,28.75
2024-05-09T12:18:02.891Z,28.29
2024-05-09T12:20:11.341Z,28.55
2024-05-09T12:22:19.005Z,29.10
2024-05-09T12:24:20.667Z,29.26
2024-05-09T12:26:22.392Z,29.45
2024-05-09T12:28:25.327Z,28.90
2024-05-09T12:30:34.949Z,29.30
2024-05-09T12:32:40.253Z,29.56
2024-05-09T12:34:41.999Z,29.35
2024-05-09T12:36:43.778Z,29.49
2024-05-09T12:38:45.477Z,29.62
2024-05-09T12:40:47.178Z,29.59
2024-05-09T12:42:48.894Z,29.43
2024-05-09T12:44:50.612Z,29.38
2024-05-09T12:46:52.292Z,29.48
2024-05-09T12:48:54.336Z,29.07
2024-05-09T12:50:56.496Z,29.27
2024-05-09T12:52:58.173Z,29.58
2024-05-09T12:54:59.841Z,29.38
2024-05-09T12:57:01.485Z,29.40
2024-05-09T12:59:03.155Z,29.39
2024-05-09T13:01:04.879Z,29.39
2024-05-09T13:03:06.669Z,28.78
2024-05-09T13:05:09.494Z,29.29
2024-05-09T13:07:11.367Z,29.29
2024-05-09T13:09:13.090Z,29.47
2024-05-09T13:11:14.991Z,29.44
2024-05-09T13:13:17.016Z,29.52
2024-05-09T13:15:18.800Z,29.41
2024-05-09T13:17:20.711Z,29.27
2024-05-09T13:19:22.708Z,28.87
2024-05-09T13:21:24.423Z,28.58
2024-05-09T13:23:26.036Z,28.59
2024-05-09T13:25:27.729Z,28.12
2024-05-09T13:27:29.420Z,27.96
2024-05-09T13:29:31.193Z,27.51
2024-05-09T13:31:32.851Z,27.67
2024-05-09T13:33:34.676Z,27.59
2024-05-09T13:35:36.526Z,27.79
2024-05-09T13:37:38.259Z,27.42
2024-05-09T13:39:40.005Z,27.67
2024-05-09T13:41:41.845Z,27.29
2024-05-09T13:43:43.497Z,27.11
2024-05-09T13:45:45.985Z,27.21
2024-05-09T13:47:47.996Z,27.66
2024-05-09T13:49:49.926Z,27.70
2024-05-09T13:51:51.659Z,27.76
2024-05-09T13:53:55.579Z,27.79
2024-05-09T13:55:57.297Z,27.02
2024-05-09T13:57:59.659Z,27.58
2024-05-09T14:00:01.366Z,27.48
2024-05-09T14:02:13.239Z,27.41
2024-05-09T14:04:15.861Z,27.84
2024-05-09T14:06:17.965Z,27.72
2024-05-09T14:08:20.717Z,27.69
2024-05-09T14:10:28.516Z,27.43
2024-05-09T14:12:32.661Z,27.33
2024-05-09T14:14:34.341Z,27.58
2024-05-09T14:16:37.183Z,27.47
2024-05-09T14:18:38.984Z,27.32
2024-05-09T14:20:41.337Z,27.42
2024-05-09T14:22:43.002Z,27.09
2024-05-09T14:24:44.684Z,26.65
2024-05-09T14:26:46.306Z,26.96
2024-05-09T14:28:47.949Z,26.86
2024-05-09T14:30:49.831Z,26.93
2024-05-09T14:32:52.168Z,26.91
2024-05-09T14:34:54.089Z,26.77
2024-05-09T14:36:57.619Z,26.56
2024-05-09T14:38:59.338Z,26.35
2024-05-09T14:41:01.030Z,26.18
2024-05-09T14:43:03.365Z,25.96
2024-05-09T14:45:05.406Z,25.98
2024-05-09T14:47:08.911Z,25.93
2024-05-09T14:49:12.468Z,25.79
2024-05-09T14:51:15.342Z,26.06
2024-05-09T14:53:16.953Z,25.82
2024-05-09T14:55:18.618Z,25.90
2024-05-09T14:57:20.274Z,26.00
2024-05-09T14:59:21.889Z,25.97
2024-05-09T15:01:23.866Z,26.00
2024-05-09T15:03:26.043Z,25.97
2024-05-09T15:05:28.284Z,26.02
2024-05-09T15:07:30.064Z,26.12
2024-05-09T15:09:35.892Z,26.02
2024-05-09T15:11:37.571Z,25.88
2024-05-09T15:13:39.312Z,26.01
2024-05-09T15:15:41.560Z,25.72
2024-05-09T15:17:43.847Z,25.93
2024-05-09T15:19:45.611Z,25.41
2024-05-09T15:21:47.324Z,25.36
2024-05-09T15:23:48.975Z,25.49
2024-05-09T15:25:50.610Z,25.38
2024-05-09T15:27:52.354Z,25.52
2024-05-09T15:29:54.006Z,25.44
2024-05-09T15:31:55.692Z,25.56
2024-05-09T15:33:57.407Z,25.60
2024-05-09T15:35:59.142Z,25.48
2024-05-09T15:38:01.683Z,25.44
2024-05-09T15:40:04.464Z,25.24
2024-05-09T15:42:07.089Z,25.25
2024-05-09T15:44:08.730Z,25.32
2024-05-09T15:46:11.207Z,25.17
2024-05-09T15:48:13.167Z,24.90
2024-05-09T15:50:20.565Z,24.91
2024-05-09T15:52:30.080Z,24.77
2024-05-09T15:54:31.745Z,24.67
2024-05-09T15:56:34.842Z,24.65
2024-05-09T15:58:36.466Z,24.72
2024-05-09T16:00:41.546Z,24.57
2024-05-09T16:02:46.687Z,24.49
2024-05-09T16:04:48.669Z,24.15
2024-05-09T16:06:50.437Z,24.21
2024-05-09T16:08:52.114Z,24.12
2024-05-09T16:10:53.833Z,24.26
2024-05-09T16:12:56.082Z,24.27
2024-05-09T16:14:57.811Z,23.88
2024-05-09T16:16:59.627Z,24.08
2024-05-09T16:19:01.555Z,24.17
2024-05-09T16:21:04.280Z,24.18
2024-05-09T16:23:06.604Z,24.25
2024-05-09T16:25:08.361Z,24.11
2024-05-09T16:27:10.535Z,23.99
2024-05-09T16:29:12.190Z,23.93
2024-05-09T16:31:13.910Z,23.77
2024-05-09T16:33:20.014Z,23.75
2024-05-09T16:35:21.842Z,23.50
2024-05-09T16:37:25.897Z,23.51
2024-05-09T16:39:29.144Z,23.45
2024-05-09T16:41:30.774Z,23.47
2024-05-09T16:43:32.583Z,23.39
2024-05-09T16:45:34.437Z,23.34
2024-05-09T16:47:36.383Z,23.26
2024-05-09T16:49:38.160Z,23.25
2024-05-09T16:51:39.831Z,23.05
2024-05-09T16:53:41.482Z,23.03
2024-05-09T16:55:43.132Z,22.98
2024-05-09T16:57:44.810Z,22.91
2024-05-09T16:59:46.527Z,22.90
2024-05-09T17:01:48.204Z,22.84
2024-05-09T17:03:50.216Z,22.81
2024-05-09T17:05:52.296Z,22.86
2024-05-09T17:07:54.743Z,22.81
2024-05-09T17:09:56.489Z,22.78
2024-05-09T17:11:58.156Z,22.74
2024-05-09T17:13:59.850Z,22.77
2024-05-09T17:16:02.478Z,22.74
2024-05-09T17:18:08.581Z,22.65
2024-05-09T17:20:22.558Z,22.62
2024-05-09T17:22:31.021Z,22.40
2024-05-09T17:24:32.720Z,22.37
2024-05-09T17:26:34.468Z,22.22
2024-05-09T17:28:36.356Z,22.22
2024-05-09T17:30:39.990Z,22.03
2024-05-09T17:32:43.251Z,21.91
2024-05-09T17:34:45.074Z,21.73
2024-05-09T17:36:46.821Z,21.65
2024-05-09T17:38:49.153Z,21.43
2024-05-09T17:40:51.990Z,21.26
2024-05-09T17:42:53.866Z,21.05
2024-05-09T17:44:55.517Z,20.90
2024-05-09T17:46:57.188Z,20.75
2024-05-09T17:49:00.956Z,20.56
2024-05-09T17:51:03.052Z,20.34
2024-05-09T17:53:05.529Z,20.17
2024-05-09T17:55:07.385Z,19.96
2024-05-09T17:57:09.053Z,19.82
2024-05-09T17:59:11.671Z,19.64
2024-05-09T18:01:13.999Z,19.48
2024-05-09T18:03:15.701Z,19.27
2024-05-09T18:05:17.474Z,19.18
2024-05-09T18:07:19.377Z,19.01
2024-05-09T18:09:21.132Z,18.90
2024-05-09T18:11:23.899Z,18.76
2024-05-09T18:13:25.887Z,18.67
2024-05-09T18:15:27.621Z,18.46
2024-05-09T18:17:29.349Z,18.34
2024-05-09T18:19:31.140Z,18.21
2024-05-09T18:21:33.144Z,18.18
2024-05-09T18:23:34.816Z,18.21
2024-05-09T18:25:36.627Z,17.96
2024-05-09T18:27:38.494Z,17.68
2024-05-09T18:29:40.226Z,17.47
2024-05-09T18:31:41.961Z,17.32
2024-05-09T18:33:43.906Z,17.35
2024-05-09T18:35:45.892Z,17.37
2024-05-09T18:37:48.053Z,17.14
2024-05-09T18:39:49.790Z,16.97
2024-05-09T18:41:51.873Z,16.79
2024-05-09T18:43:53.994Z,16.72
2024-05-09T18:45:56.028Z,16.61
2024-05-09T18:47:58.327Z,16.59
2024-05-09T18:50:00.516Z,16.51
2024-05-09T18:52:02.908Z,16.39
2024-05-09T18:54:04.900Z,16.19
2024-05-09T18:56:07.476Z,16.12
2024-05-09T18:58:10.241Z,16.09
2024-05-09T19:00:19.312Z,16.15
2024-05-09T19:02:29.189Z,15.80
2024-05-09T19:04:31.350Z,15.96
2024-05-09T19:06:35.391Z,15.99
2024-05-09T19:08:37.183Z,15.73
2024-05-09T19:10:40.352Z,15.76
2024-05-09T19:12:42.456Z,15.52
2024-05-09T19:14:44.258Z,15.48
2024-05-09T19:16:46.472Z,15.53
2024-05-09T19:18:50.435Z,15.45
2024-05-09T19:20:53.475Z,15.34
2024-05-09T19:22:56.991Z,15.27
2024-05-09T19:24:59.013Z,15.13
2024-05-09T19:27:02.924Z,15.08
2024-05-09T19:29:05.277Z,14.98
2024-05-09T19:31:07.160Z,15.01
2024-05-09T19:33:14.256Z,14.90
2024-05-09T19:35:16.965Z,14.76
2024-05-09T19:37:19.006Z,14.67
2024-05-09T19:39:21.088Z,14.81
2024-05-09T19:41:23.236Z,14.72
2024-05-09T19:43:25.703Z,14.52
2024-05-09T19:45:28.055Z,14.55
2024-05-09T19:47:31.050Z,14.63
2024-05-09T19:49:33.525Z,14.73
2024-05-09T19:51:35.983Z,14.53
2024-05-09T19:53:38.264Z,14.34
2024-05-09T19:55:40.774Z,14.27
2024-05-09T19:57:42.960Z,14.26
2024-05-09T19:59:45.151Z,14.16
2024-05-09T20:01:47.677Z,14.06
2024-05-09T20:03:50.228Z,13.99
2024-05-09T20:05:52.242Z,13.94
2024-05-09T20:07:54.004Z,13.98
2024-05-09T20:09:55.888Z,14.03
2024-05-09T20:11:57.593Z,13.98
2024-05-09T20:13:59.736Z,14.08
2024-05-09T20:16:01.840Z,14.07
2024-05-09T20:18:04.820Z,14.12
2024-05-09T20:20:09.326Z,14.03
2024-05-09T20:22:16.200Z,13.94
2024-05-09T20:24:19.572Z,13.92
2024-05-09T20:26:21.668Z,13.87
2024-05-09T20:28:24.986Z,13.83
2024-05-09T20:30:32.508Z,13.74
2024-05-09T20:32:36.267Z,13.55
2024-05-09T20:34:39.638Z,13.48
2024-05-09T20:36:41.884Z,13.34
2024-05-09T20:38:43.743Z,13.23
2024-05-09T20:40:45.602Z,13.16
2024-05-09T20:42:47.845Z,13.18
2024-05-09T20:44:50.205Z,13.06
2024-05-09T20:46:52.020Z,13.00
2024-05-09T20:48:55.277Z,12.98
2024-05-09T20:50:57.103Z,12.94
2024-05-09T20:52:58.770Z,12.86
2024-05-09T20:55:00.575Z,12.87
2024-05-09T20:57:02.272Z,12.84
2024-05-09T20:59:03.917Z,12.89
2024-05-09T21:01:05.625Z,12.78
2024-05-09T21:03:07.766Z,12.75
2024-05-09T21:05:09.764Z,12.72
2024-05-09T21:07:11.677Z,12.67
2024-05-09T21:09:13.472Z,12.63
2024-05-09T21:11:15.088Z,12.61
2024-05-09T21:13:16.763Z,12.59
2024-05-09T21:15:18.425Z,12.59
2024-05-09T21:17:20.147Z,12.48
2024-05-09T21:19:21.872Z,12.50
2024-05-09T21:21:23.585Z,12.38
2024-05-09T21:23:25.209Z,12.35
2024-05-09T21:25:26.886Z,12.30
2024-05-09T21:27:28.538Z,12.29
2024-05-09T21:29:30.159Z,12.28
2024-05-09T21:31:32.010Z,12.24
2024-05-09T21:33:36.126Z,12.30
2024-05-09T21:35:37.942Z,12.41
2024-05-09T21:37:39.636Z,12.40
2024-05-09T21:39:42.112Z,12.24
2024-05-09T21:41:43.745Z,12.06
2024-05-09T21:43:45.367Z,11.97
2024-05-09T21:45:47.022Z,11.93
2024-05-09T21:47:48.723Z,11.90
2024-05-09T21:49:50.442Z,11.87
2024-05-09T21:51:52.097Z,11.80
2024-05-09T21:53:55.442Z,11.80
2024-05-09T21:55:57.060Z,11.86
2024-05-09T21:57:58.746Z,11.92
2024-05-09T22:00:00.405Z,11.95
2024-05-09T22:02:02.227Z,11.87
2024-05-09T22:04:04.084Z,11.92
2024-05-09T22:06:06.020Z,11.99
2024-05-09T22:08:07.653Z,12.05
2024-05-09T22:10:16.067Z,12.09
2024-05-09T22:12:24.003Z,12.12
2024-05-09T22:14:25.646Z,12.11
2024-05-09T22:16:27.353Z,12.12
2024-05-09T22:18:29.028Z,12.04
2024-05-09T22:20:36.740Z,11.92
2024-05-09T22:22:40.678Z,11.94
2024-05-09T22:24:42.360Z,12.01
2024-05-09T22:26:44.012Z,12.08
2024-05-09T22:28:45.631Z,11.99
2024-05-09T22:30:49.303Z,11.96
2024-05-09T22:32:51.032Z,11.91
2024-05-09T22:34:52.797Z,11.76
2024-05-09T22:36:54.474Z,11.72
2024-05-09T22:38:56.135Z,11.62
2024-05-09T22:40:57.924Z,11.60
2024-05-09T22:42:59.722Z,11.60
2024-05-09T22:45:01.390Z,11.65
2024-05-09T22:47:03.235Z,11.69
2024-05-09T22:49:05.783Z,11.64
2024-05-09T22:51:07.483Z,11.54
2024-05-09T22:53:09.098Z,11.46
2024-05-09T22:55:10.898Z,11.42
2024-05-09T22:57:12.634Z,11.40
2024-05-09T22:59:14.276Z,11.32
2024-05-09T23:01:16.004Z,11.28
2024-05-09T23:03:19.778Z,11.24
2024-05-09T23:05:21.674Z,11.17
2024-05-09T23:07:23.513Z,11.15
2024-05-09T23:09:25.140Z,11.08
2024-05-09T23:11:26.887Z,11.07
2024-05-09T23:13:28.652Z,11.04
2024-05-09T23:15:30.380Z,10.98
2024-05-09T23:17:32.098Z,11.00
2024-05-09T23:19:34.555Z,11.00
2024-05-09T23:21:39.627Z,10.99
2024-05-09T23:23:41.458Z,10.98
2024-05-09T23:25:43.223Z,11.08
2024-05-09T23:27:44.897Z,11.11
2024-05-09T23:29:46.578Z,11.07
2024-05-09T23:31:48.222Z,11.09
2024-05-09T23:33:50.041Z,11.09
2024-05-09T23:35:51.739Z,11.16
2024-05-09T23:37:53.368Z,11.16
2024-05-09T23:39:55.201Z,11.00
2024-05-09T23:41:56.823Z,10.95
2024-05-09T23:43:58.450Z,10.90
2024-05-09T23:46:00.132Z,10.86
2024-05-09T23:48:02.189Z,10.73
2024-05-09T23:50:08.950Z,10.69
2024-05-09T23:52:15.932Z,10.63
2024-05-09T23:54:17.654Z,10.62
2024-05-09T23:56:20.469Z,10.61
2024-05-09T23:58:22.323Z,10.61
